Time;durP1;ratioP1;P1;durP2;ratioP2;P2;SDS_P1;SDS_P2;PMS_P1;PMS_P2;Temp;Humidity;BMP_temperature;BMP_pressure;BME280_temperature;BME280_humidity;BME280_pressure;Samples;Min_cycle;Max_cycle;Signal;HPM_P1;HPM_P2
2023/03/21 00:00:29;;;;;;;3.40;1.83;;;13.10;99.90;;;;;;5105514;28;20257;-82
2023/03/21 00:02:55;;;;;;;5.67;2.50;;;13.10;99.90;;;;;;5113667;28;21274;-82
2023/03/21 00:05:21;;;;;;;3.40;1.98;;;13.10;99.90;;;;;;5067561;28;20177;-82
2023/03/21 00:07:47;;;;;;;5.47;2.50;;;13.10;99.90;;;;;;5073059;28;20200;-81
2023/03/21 00:10:13;;;;;;;5.90;2.60;;;13.20;99.90;;;;;;5055932;28;20161;-82
2023/03/21 00:12:38;;;;;;;5.60;2.40;;;13.20;99.90;;;;;;5086278;28;20547;-82
2023/03/21 00:15:06;;;;;;;5.00;2.20;;;13.20;99.90;;;;;;5115028;28;20171;-82
2023/03/21 00:17:32;;;;;;;4.60;2.70;;;13.20;99.90;;;;;;5113155;28;20220;-82
2023/03/21 00:19:59;;;;;;;5.40;2.50;;;13.10;99.90;;;;;;5109658;28;20589;-83
2023/03/21 00:22:26;;;;;;;8.52;3.60;;;13.10;99.90;;;;;;5095731;28;20616;-83
2023/03/21 00:24:53;;;;;;;5.10;2.92;;;13.10;99.90;;;;;;5096234;28;20176;-83
2023/03/21 00:27:19;;;;;;;5.90;2.70;;;13.10;99.90;;;;;;5079501;28;20191;-83
2023/03/21 00:29:45;;;;;;;5.83;2.50;;;13.10;99.90;;;;;;5098149;28;20175;-83
2023/03/21 00:32:11;;;;;;;5.32;2.45;;;13.10;99.90;;;;;;5078688;28;20764;-83
2023/03/21 00:34:37;;;;;;;4.60;2.30;;;13.20;99.90;;;;;;5095886;28;20203;-83
2023/03/21 00:37:06;;;;;;;3.70;2.23;;;13.10;99.90;;;;;;5095255;28;20225;-83
2023/03/21 00:39:32;;;;;;;7.45;2.80;;;13.10;99.90;;;;;;5094791;28;20198;-83
2023/03/21 00:41:59;;;;;;;4.40;2.43;;;13.20;99.90;;;;;;5078823;28;20266;-82
2023/03/21 00:44:24;;;;;;;6.50;1.80;;;13.10;99.90;;;;;;5097006;28;20278;-82
2023/03/21 00:46:53;;;;;;;6.47;3.10;;;13.10;99.90;;;;;;5079737;28;20655;-82
2023/03/21 00:49:19;;;;;;;5.47;2.78;;;13.10;99.90;;;;;;5095506;28;20210;-83
2023/03/21 00:51:49;;;;;;;4.57;2.33;;;13.10;99.90;;;;;;5094752;28;20202;-82
2023/03/21 00:54:16;;;;;;;4.45;2.28;;;13.10;99.90;;;;;;5081261;28;20613;-81
2023/03/21 00:56:42;;;;;;;6.20;3.25;;;13.10;99.90;;;;;;5105698;28;20295;-82
2023/03/21 00:59:09;;;;;;;4.43;2.37;;;13.10;99.90;;;;;;5097674;28;20185;-82
2023/03/21 01:01:35;;;;;;;5.57;3.00;;;13.10;99.90;;;;;;5097244;28;20592;-83
2023/03/21 01:04:09;;;;;;;4.63;3.15;;;13.10;99.90;;;;;;5114361;28;20179;-82
2023/03/21 01:06:40;;;;;;;4.30;2.67;;;13.10;99.90;;;;;;5097370;28;20584;-82
2023/03/21 01:09:10;;;;;;;5.97;2.72;;;13.10;99.90;;;;;;5076727;28;20203;-82
2023/03/21 01:11:36;;;;;;;7.47;3.05;;;13.10;99.90;;;;;;5095099;28;20175;-83
2023/03/21 01:14:02;;;;;;;6.67;3.27;;;13.10;99.90;;;;;;5113843;28;20171;-83
2023/03/21 01:16:28;;;;;;;8.00;2.90;;;13.20;99.90;;;;;;5114969;28;20569;-83
2023/03/21 01:18:54;;;;;;;4.53;2.90;;;13.10;99.90;;;;;;5115490;28;20577;-83
2023/03/21 01:21:20;;;;;;;4.00;3.03;;;13.10;99.90;;;;;;5079907;28;20578;-83
2023/03/21 01:23:47;;;;;;;3.70;2.90;;;13.10;99.90;;;;;;5078945;28;20272;-83
2023/03/21 01:26:13;;;;;;;3.17;2.17;;;13.20;99.90;;;;;;5096907;28;21040;-83
2023/03/21 01:28:40;;;;;;;4.47;2.78;;;13.10;99.90;;;;;;5095146;28;20188;-82
2023/03/21 01:31:06;;;;;;;5.97;3.20;;;13.10;99.90;;;;;;5093870;28;20172;-83
2023/03/21 01:33:33;;;;;;;5.20;2.80;;;13.10;99.90;;;;;;5077351;28;20277;-83
2023/03/21 01:35:59;;;;;;;5.75;2.75;;;13.10;99.90;;;;;;5096892;28;20597;-82
2023/03/21 01:38:27;;;;;;;5.13;3.03;;;13.10;99.90;;;;;;5096846;28;20183;-82
2023/03/21 01:40:53;;;;;;;6.33;3.33;;;13.10;99.90;;;;;;5080153;28;21145;-82
2023/03/21 01:43:32;;;;;;;7.80;3.50;;;13.10;99.90;;;;;;5079425;28;20676;-82
2023/03/21 01:46:38;;;;;;;3.97;2.80;;;13.10;99.90;;;;;;5080608;28;20688;-82
2023/03/21 01:49:33;;;;;;;10.10;4.07;;;13.20;99.90;;;;;;5079678;28;20625;-82
2023/03/21 01:52:16;;;;;;;5.97;3.65;;;13.10;99.90;;;;;;5087631;28;20187;-82
2023/03/21 01:54:44;;;;;;;6.32;3.38;;;13.10;99.90;;;;;;5115346;28;20178;-82
2023/03/21 01:57:17;;;;;;;7.57;3.67;;;13.00;99.90;;;;;;5111519;28;20174;-82
2023/03/21 01:59:49;;;;;;;6.00;3.25;;;13.00;99.90;;;;;;5110902;28;20558;-82
2023/03/21 02:02:36;;;;;;;6.07;3.03;;;13.00;99.90;;;;;;5083299;28;20200;-82
2023/03/21 02:05:53;;;;;;;5.00;3.83;;;13.00;99.90;;;;;;5092036;28;20608;-82
2023/03/21 02:08:20;;;;;;;5.82;3.83;;;13.00;99.90;;;;;;5073735;28;20208;-82
2023/03/21 02:10:48;;;;;;;5.55;2.72;;;13.00;99.90;;;;;;5077170;28;20199;-83
2023/03/21 02:13:22;;;;;;;5.65;3.22;;;13.00;99.90;;;;;;5060121;28;20588;-84
2023/03/21 02:16:11;;;;;;;7.28;3.30;;;13.00;99.90;;;;;;5074796;28;20174;-83
2023/03/21 02:18:44;;;;;;;6.20;3.10;;;13.00;99.90;;;;;;5073727;28;20542;-83
2023/03/21 02:21:28;;;;;;;4.95;3.30;;;13.00;99.90;;;;;;5075140;28;20179;-83
2023/03/21 02:24:40;;;;;;;5.13;2.97;;;13.00;99.90;;;;;;5094186;28;20184;-83
2023/03/21 02:27:14;;;;;;;4.50;2.88;;;12.90;99.90;;;;;;5060501;28;20183;-83
2023/03/21 02:29:43;;;;;;;7.88;3.35;;;12.90;99.90;;;;;;5076949;28;20202;-83
2023/03/21 02:32:17;;;;;;;9.75;3.78;;;12.90;99.90;;;;;;5093126;28;20277;-83
2023/03/21 02:35:01;;;;;;;7.30;4.28;;;12.90;99.90;;;;;;5077243;28;20190;-83
2023/03/21 02:37:43;;;;;;;8.05;3.53;;;12.90;99.90;;;;;;5094055;28;20583;-83
2023/03/21 02:40:18;;;;;;;6.32;3.28;;;12.90;99.90;;;;;;5077703;28;20171;-83
2023/03/21 02:42:59;;;;;;;4.05;3.05;;;12.90;99.90;;;;;;5094987;28;20555;-83
2023/03/21 02:45:35;;;;;;;7.05;3.25;;;12.90;99.90;;;;;;5075972;28;20197;-83
2023/03/21 02:48:10;;;;;;;5.88;3.00;;;13.00;99.90;;;;;;5076219;28;20199;-83
2023/03/21 02:50:48;;;;;;;5.97;3.35;;;12.90;99.90;;;;;;5092991;28;20219;-83
2023/03/21 02:53:21;;;;;;;8.88;3.33;;;12.90;99.90;;;;;;5077869;28;20191;-83
2023/03/21 02:55:48;;;;;;;5.57;3.30;;;12.90;99.90;;;;;;5061842;28;20211;-83
2023/03/21 03:00:47;;;;;;;5.82;2.63;;;13.00;99.90;;;;;;4969097;28;20204;-74
2023/03/21 03:03:22;;;;;;;7.00;3.45;;;13.00;99.90;;;;;;4999111;28;20261;-75
2023/03/21 03:05:52;;;;;;;7.95;2.80;;;13.10;99.90;;;;;;5001287;28;20183;-75
2023/03/21 03:08:34;;;;;;;5.35;2.70;;;13.00;99.90;;;;;;4975457;28;20207;-75
2023/03/21 03:11:23;;;;;;;4.23;3.00;;;13.00;99.90;;;;;;4960421;28;20578;-75
2023/03/21 03:13:52;;;;;;;5.85;3.53;;;13.00;99.90;;;;;;4962653;28;20608;-75
2023/03/21 03:16:26;;;;;;;8.13;3.00;;;13.00;99.90;;;;;;4968174;28;20182;-75
2023/03/21 03:18:55;;;;;;;6.13;2.85;;;13.00;99.90;;;;;;4957039;28;20252;-75
2023/03/21 03:21:35;;;;;;;5.30;2.75;;;13.00;99.90;;;;;;4963030;28;20171;-75
2023/03/21 03:24:13;;;;;;;5.15;2.13;;;12.90;99.90;;;;;;4975320;28;20756;-75
2023/03/21 03:26:42;;;;;;;7.95;2.90;;;12.90;99.90;;;;;;4981811;28;20175;-75
2023/03/21 03:29:12;;;;;;;7.80;3.10;;;12.80;99.90;;;;;;4961477;28;20290;-75
2023/03/21 03:32:00;;;;;;;5.25;3.00;;;12.80;99.90;;;;;;4989178;28;20206;-75
2023/03/21 03:34:38;;;;;;;5.03;3.00;;;12.70;99.90;;;;;;4965323;28;20207;-75
2023/03/21 03:37:08;;;;;;;5.30;2.80;;;12.70;99.90;;;;;;4984596;28;20166;-74
2023/03/21 03:39:40;;;;;;;8.50;2.10;;;12.70;99.90;;;;;;4962400;28;20199;-75
2023/03/21 03:42:20;;;;;;;5.90;3.00;;;12.60;99.90;;;;;;4985947;28;20180;-74
2023/03/21 03:44:50;;;;;;;5.18;2.45;;;12.60;99.90;;;;;;4979509;28;20190;-74
2023/03/21 03:47:23;;;;;;;7.00;3.57;;;12.50;99.90;;;;;;4978145;28;20179;-75
2023/03/21 03:50:13;;;;;;;7.80;2.65;;;12.50;99.90;;;;;;4968749;28;20676;-75
2023/03/21 03:52:44;;;;;;;7.20;2.67;;;12.40;99.90;;;;;;4967738;28;20179;-75
2023/03/21 03:55:15;;;;;;;5.57;2.72;;;12.40;99.90;;;;;;4976571;28;20177;-75
2023/03/21 03:57:43;;;;;;;4.88;2.47;;;12.40;99.90;;;;;;4984153;28;20235;-77
2023/03/21 04:00:20;;;;;;;4.82;2.90;;;12.40;99.90;;;;;;5001129;28;20203;-76
2023/03/21 04:02:50;;;;;;;5.63;2.42;;;12.40;99.90;;;;;;4971144;28;20186;-76
2023/03/21 04:05:21;;;;;;;6.72;2.80;;;12.40;99.90;;;;;;4981963;28;20219;-76
2023/03/21 04:07:51;;;;;;;6.45;2.72;;;12.40;99.90;;;;;;4985970;28;20207;-74
2023/03/21 04:10:23;;;;;;;9.52;3.92;;;12.40;99.90;;;;;;4982595;28;20273;-74
2023/03/21 04:12:50;;;;;;;4.25;2.50;;;12.40;99.90;;;;;;4967065;28;20172;-74
2023/03/21 04:15:35;;;;;;;7.40;2.72;;;12.50;99.90;;;;;;4992045;28;20247;-77
2023/03/21 04:18:08;;;;;;;10.25;3.20;;;12.50;99.90;;;;;;4975187;28;20612;-76
2023/03/21 04:20:34;;;;;;;7.10;3.00;;;12.50;99.90;;;;;;4987147;28;20190;-76
2023/03/21 04:23:00;;;;;;;6.07;2.75;;;12.50;99.90;;;;;;4984162;28;20597;-76
2023/03/21 04:25:27;;;;;;;7.47;2.75;;;12.40;99.90;;;;;;4992587;28;20178;-76
2023/03/21 04:27:55;;;;;;;6.38;2.47;;;12.50;99.90;;;;;;4975824;28;20249;-77
2023/03/21 04:30:34;;;;;;;6.88;3.35;;;12.50;99.90;;;;;;4976373;28;20181;-77
2023/03/21 04:33:06;;;;;;;5.15;3.08;;;12.50;99.90;;;;;;5008906;28;20171;-77
2023/03/21 04:35:35;;;;;;;7.40;2.78;;;12.50;99.90;;;;;;4992448;28;20254;-76
2023/03/21 04:38:01;;;;;;;7.38;3.13;;;12.40;99.90;;;;;;4992431;28;20262;-76
2023/03/21 04:40:27;;;;;;;7.47;2.63;;;12.50;99.90;;;;;;4991958;28;20281;-76
2023/03/21 04:42:54;;;;;;;5.20;2.47;;;12.50;99.90;;;;;;4992897;28;20600;-76
2023/03/21 04:45:20;;;;;;;3.53;1.93;;;12.50;99.90;;;;;;4975808;28;20258;-75
2023/03/21 04:47:46;;;;;;;6.20;2.73;;;12.50;99.90;;;;;;4992583;28;21160;-76
2023/03/21 04:50:12;;;;;;;9.13;2.20;;;12.60;99.90;;;;;;4991882;28;21227;-75
2023/03/21 04:52:39;;;;;;;5.10;1.65;;;12.60;99.90;;;;;;4992614;28;20175;-76
2023/03/21 04:55:08;;;;;;;5.13;2.87;;;12.60;99.90;;;;;;4993773;28;20178;-75
2023/03/21 04:57:38;;;;;;;5.63;2.67;;;12.70;99.90;;;;;;4991965;28;20178;-76
2023/03/21 05:00:09;;;;;;;7.10;2.65;;;12.60;99.90;;;;;;4975772;28;20206;-76
2023/03/21 05:02:35;;;;;;;7.05;2.28;;;12.60;99.90;;;;;;4975277;28;20174;-76
2023/03/21 05:05:01;;;;;;;11.18;3.00;;;12.60;99.90;;;;;;4993747;28;20175;-77
2023/03/21 05:07:27;;;;;;;4.97;2.33;;;12.60;99.90;;;;;;4966368;28;20310;-76
2023/03/21 05:09:54;;;;;;;8.75;2.10;;;12.60;99.90;;;;;;4956168;28;20379;-76
2023/03/21 05:12:20;;;;;;;4.90;2.30;;;12.60;99.90;;;;;;4971864;28;20310;-76
2023/03/21 05:14:45;;;;;;;7.43;3.10;;;12.60;99.90;;;;;;4972615;28;20306;-76
2023/03/21 05:17:23;;;;;;;5.60;3.23;;;12.60;99.90;;;;;;4972626;28;21127;-76
2023/03/21 05:19:51;;;;;;;4.75;2.65;;;12.50;99.90;;;;;;4971781;28;20196;-75
2023/03/21 05:22:18;;;;;;;7.55;2.92;;;12.50;99.90;;;;;;4972356;28;20583;-76
2023/03/21 05:24:49;;;;;;;8.25;3.10;;;12.50;99.90;;;;;;4956192;28;20199;-76
2023/03/21 05:27:33;;;;;;;4.22;2.50;;;12.40;99.90;;;;;;4972893;28;20179;-76
2023/03/21 05:30:13;;;;;;;8.20;2.80;;;12.40;99.90;;;;;;4955088;28;20207;-76
2023/03/21 05:32:40;;;;;;;4.88;3.03;;;12.40;99.90;;;;;;4972310;28;20222;-76
2023/03/21 05:35:09;;;;;;;6.18;2.80;;;12.40;99.90;;;;;;4972188;28;20187;-76
2023/03/21 05:37:35;;;;;;;5.80;2.88;;;12.40;99.90;;;;;;4972728;28;20633;-76
2023/03/21 05:40:03;;;;;;;5.77;2.80;;;12.50;99.90;;;;;;4971904;28;20205;-77
2023/03/21 05:42:31;;;;;;;8.98;3.22;;;12.50;99.90;;;;;;4972295;28;20270;-76
2023/03/21 05:44:57;;;;;;;5.00;2.78;;;12.50;99.90;;;;;;4941135;28;20175;-78
2023/03/21 05:47:28;;;;;;;5.30;3.55;;;12.50;99.90;;;;;;4979005;28;20294;-80
2023/03/21 05:49:56;;;;;;;5.20;2.97;;;12.50;99.90;;;;;;4979826;28;20207;-78
2023/03/21 05:52:24;;;;;;;8.10;2.83;;;12.50;99.90;;;;;;4983602;28;20175;-79
2023/03/21 05:54:50;;;;;;;7.00;3.17;;;12.40;99.90;;;;;;4980456;28;20187;-79
2023/03/21 05:57:19;;;;;;;6.68;2.70;;;12.40;99.90;;;;;;4962865;28;20663;-78
2023/03/21 05:59:54;;;;;;;7.15;2.97;;;12.40;99.90;;;;;;4972911;28;20249;-78
2023/03/21 06:02:20;;;;;;;6.53;2.90;;;12.50;99.90;;;;;;4971987;28;20211;-78
2023/03/21 06:04:47;;;;;;;7.13;2.83;;;12.50;99.90;;;;;;4973020;28;20595;-78
2023/03/21 06:07:13;;;;;;;7.75;3.05;;;12.50;99.90;;;;;;4972234;28;20176;-78
2023/03/21 06:09:40;;;;;;;8.20;3.20;;;12.50;99.90;;;;;;4976010;28;20211;-78
2023/03/21 06:12:06;;;;;;;5.50;2.30;;;12.50;99.90;;;;;;4982224;28;20172;-78
2023/03/21 06:14:41;;;;;;;8.93;2.90;;;12.50;99.90;;;;;;4988674;28;20257;-78
2023/03/21 06:17:20;;;;;;;7.53;3.30;;;12.50;99.90;;;;;;4941501;28;20171;-78
2023/03/21 06:19:51;;;;;;;5.22;3.05;;;12.50;99.90;;;;;;4956652;28;20203;-77
2023/03/21 06:22:27;;;;;;;5.55;3.05;;;12.50;99.90;;;;;;4972094;28;20167;-78
2023/03/21 06:24:53;;;;;;;5.30;3.65;;;12.60;99.90;;;;;;4972265;28;20266;-78
2023/03/21 06:27:19;;;;;;;8.13;3.00;;;12.60;99.90;;;;;;4977249;28;20191;-79
2023/03/21 06:30:06;;;;;;;8.20;3.10;;;12.60;99.90;;;;;;4978918;28;20202;-78
2023/03/21 06:32:37;;;;;;;5.10;3.08;;;12.60;99.90;;;;;;4971189;28;20172;-76
2023/03/21 06:35:11;;;;;;;5.55;2.90;;;12.70;99.90;;;;;;4970782;28;20199;-76
2023/03/21 06:37:37;;;;;;;8.15;3.22;;;12.70;99.90;;;;;;4970036;28;20270;-75
2023/03/21 06:40:04;;;;;;;7.40;3.67;;;12.70;99.90;;;;;;4970391;28;20202;-75
2023/03/21 06:42:31;;;;;;;5.22;2.97;;;12.80;99.90;;;;;;4970877;28;20199;-75
2023/03/21 06:45:02;;;;;;;7.22;3.15;;;12.80;99.90;;;;;;4970846;28;20230;-75
2023/03/21 06:47:28;;;;;;;9.20;4.40;;;12.80;99.90;;;;;;4971023;28;20202;-75
2023/03/21 06:49:54;;;;;;;6.63;3.37;;;12.80;99.90;;;;;;4970296;28;20298;-75
2023/03/21 06:52:20;;;;;;;10.70;3.70;;;12.80;99.90;;;;;;4954880;28;20579;-75
2023/03/21 06:54:47;;;;;;;5.50;3.30;;;12.90;99.90;;;;;;4972399;28;20682;-75
2023/03/21 06:57:16;;;;;;;5.10;2.35;;;12.90;99.90;;;;;;4939011;28;20175;-75
2023/03/21 06:59:43;;;;;;;6.10;2.50;;;13.00;99.90;;;;;;4970823;28;20234;-76
2023/03/21 07:02:13;;;;;;;5.93;2.65;;;13.00;99.90;;;;;;4986815;28;20214;-75
2023/03/21 07:04:45;;;;;;;4.83;2.97;;;13.10;99.90;;;;;;4954854;28;20191;-76
2023/03/21 07:07:17;;;;;;;7.50;3.25;;;13.20;99.90;;;;;;4970566;28;20672;-76
2023/03/21 07:09:43;;;;;;;7.10;3.30;;;13.20;99.90;;;;;;4970435;28;20216;-76
2023/03/21 07:12:09;;;;;;;4.73;2.80;;;13.30;99.90;;;;;;4986394;28;20176;-76
2023/03/21 07:14:54;;;;;;;8.50;3.95;;;13.30;99.90;;;;;;4957277;28;20267;-76
2023/03/21 07:17:19;;;;;;;5.07;3.60;;;13.40;99.90;;;;;;4971693;28;20250;-76
2023/03/21 07:19:45;;;;;;;4.33;2.53;;;13.40;99.90;;;;;;4970221;28;20630;-76
2023/03/21 07:22:12;;;;;;;7.27;3.93;;;13.40;99.90;;;;;;4970761;28;20255;-76
2023/03/21 07:24:38;;;;;;;7.00;3.30;;;13.40;99.90;;;;;;4954660;28;20671;-75
2023/03/21 07:27:03;;;;;;;6.37;3.63;;;13.40;99.90;;;;;;4974716;28;20184;-75
2023/03/21 07:29:29;;;;;;;5.47;3.10;;;13.40;99.90;;;;;;4973941;28;20211;-75
2023/03/21 07:31:55;;;;;;;6.57;3.67;;;13.40;99.90;;;;;;4958192;28;20187;-75
2023/03/21 07:34:21;;;;;;;6.80;3.30;;;13.40;99.90;;;;;;4990376;28;20195;-76
2023/03/21 07:36:47;;;;;;;6.10;3.70;;;13.40;99.90;;;;;;4975829;28;20586;-75
2023/03/21 07:39:13;;;;;;;10.77;3.73;;;13.40;99.90;;;;;;4957656;28;20195;-75
2023/03/21 07:41:39;;;;;;;9.27;3.97;;;13.30;99.90;;;;;;4974406;28;20635;-75
2023/03/21 07:44:23;;;;;;;6.45;3.50;;;13.30;99.90;;;;;;4974080;28;20179;-76
2023/03/21 07:46:57;;;;;;;6.93;3.30;;;13.30;99.90;;;;;;4958280;28;20210;-75
2023/03/21 07:49:23;;;;;;;4.53;3.10;;;13.30;99.90;;;;;;4975361;28;20211;-76
2023/03/21 07:51:50;;;;;;;7.38;3.63;;;13.30;99.90;;;;;;4957886;28;20659;-76
2023/03/21 07:54:18;;;;;;;8.10;3.97;;;13.30;99.90;;;;;;4975964;28;20168;-76
2023/03/21 07:56:44;;;;;;;5.90;3.20;;;13.30;99.90;;;;;;4990987;28;20180;-76
2023/03/21 07:59:09;;;;;;;10.03;4.40;;;13.20;99.90;;;;;;4976378;28;20273;-76
2023/03/21 08:01:35;;;;;;;6.37;2.87;;;13.20;99.90;;;;;;4990452;28;20591;-76
2023/03/21 08:04:01;;;;;;;7.93;3.07;;;13.10;99.90;;;;;;4974542;28;20640;-76
2023/03/21 08:06:27;;;;;;;8.67;3.70;;;13.00;99.90;;;;;;4973776;28;20183;-76
2023/03/21 08:08:53;;;;;;;10.45;4.40;;;12.90;99.90;;;;;;4974153;28;20211;-76
2023/03/21 08:11:20;;;;;;;10.03;3.60;;;12.80;99.90;;;;;;4975524;28;20644;-76
2023/03/21 08:13:47;;;;;;;9.60;5.22;;;12.70;99.90;;;;;;4975331;28;20182;-76
2023/03/21 08:16:12;;;;;;;8.67;4.20;;;12.60;99.90;;;;;;4958458;28;20176;-76
2023/03/21 08:18:38;;;;;;;6.50;4.30;;;12.40;99.90;;;;;;4975587;28;20247;-76
2023/03/21 08:21:04;;;;;;;9.53;5.20;;;12.40;99.90;;;;;;4974095;28;20187;-76
2023/03/21 08:23:30;;;;;;;11.30;4.78;;;12.30;99.90;;;;;;4975459;28;20176;-76
2023/03/21 08:25:56;;;;;;;6.63;4.70;;;12.20;99.90;;;;;;4975344;28;20534;-76
2023/03/21 08:28:23;;;;;;;8.50;3.67;;;12.10;99.90;;;;;;4974655;28;20196;-76
2023/03/21 08:30:49;;;;;;;11.70;3.90;;;12.10;99.90;;;;;;4974957;28;20579;-76
2023/03/21 08:33:17;;;;;;;6.50;4.45;;;11.90;99.90;;;;;;4989801;28;20207;-76
2023/03/21 08:35:44;;;;;;;10.48;4.10;;;11.90;99.90;;;;;;4974534;28;20699;-77
2023/03/21 08:38:10;;;;;;;7.57;3.85;;;11.80;99.90;;;;;;4973356;28;20271;-76
2023/03/21 08:40:36;;;;;;;9.67;5.80;;;11.80;99.90;;;;;;4973550;28;20271;-77
2023/03/21 08:43:02;;;;;;;7.22;4.38;;;11.70;99.90;;;;;;4974085;28;20188;-76
2023/03/21 08:45:27;;;;;;;4.20;3.40;;;11.70;99.90;;;;;;4975293;28;20179;-76
2023/03/21 08:47:54;;;;;;;7.60;4.47;;;11.70;99.90;;;;;;4974421;28;20612;-77
2023/03/21 08:50:23;;;;;;;10.23;4.72;;;11.70;99.90;;;;;;4974047;28;20188;-76
2023/03/21 08:52:49;;;;;;;9.05;5.13;;;11.70;99.90;;;;;;4989531;28;20649;-76
2023/03/21 08:55:17;;;;;;;8.27;4.35;;;11.70;99.90;;;;;;4974607;28;20179;-76
2023/03/21 08:57:43;;;;;;;8.52;4.50;;;11.70;99.90;;;;;;4974454;28;20234;-76
2023/03/21 09:00:13;;;;;;;8.10;4.65;;;11.70;99.90;;;;;;4974370;28;20208;-76
2023/03/21 09:02:45;;;;;;;11.90;4.22;;;11.80;99.90;;;;;;4972771;28;20183;-77
2023/03/21 09:05:11;;;;;;;9.55;5.43;;;11.80;99.90;;;;;;4974219;28;20538;-77
2023/03/21 09:07:38;;;;;;;8.80;4.80;;;11.80;99.90;;;;;;4973420;28;20191;-76
2023/03/21 09:10:09;;;;;;;7.30;4.30;;;11.80;99.90;;;;;;4974539;28;20254;-76
2023/03/21 09:12:35;;;;;;;9.68;5.03;;;11.80;99.90;;;;;;4974280;28;20183;-76
2023/03/21 09:15:01;;;;;;;10.70;4.63;;;11.80;99.90;;;;;;4974624;28;20598;-77
2023/03/21 09:17:31;;;;;;;6.80;2.92;;;11.70;99.90;;;;;;4957416;28;20580;-76
2023/03/21 09:19:59;;;;;;;7.38;3.72;;;11.70;99.90;;;;;;4955284;29;20247;-76
2023/03/21 09:22:26;;;;;;;7.13;4.20;;;11.70;99.90;;;;;;4954532;28;20177;-76
2023/03/21 09:24:52;;;;;;;7.32;4.40;;;11.70;99.90;;;;;;4964589;28;20199;-76
2023/03/21 09:27:22;;;;;;;7.13;4.70;;;11.70;99.90;;;;;;4972441;28;20208;-75
2023/03/21 09:29:51;;;;;;;7.07;4.15;;;11.70;99.90;;;;;;4971790;28;20241;-75
2023/03/21 09:32:17;;;;;;;8.30;4.85;;;11.70;99.90;;;;;;4972455;28;20186;-75
2023/03/21 09:34:44;;;;;;;7.47;4.88;;;11.70;99.90;;;;;;4956252;28;20183;-75
2023/03/21 09:37:12;;;;;;;7.70;5.57;;;11.90;99.90;;;;;;4972399;28;20617;-75
2023/03/21 09:39:39;;;;;;;6.72;4.38;;;11.90;99.90;;;;;;4973457;28;20196;-76
2023/03/21 09:42:19;;;;;;;7.57;5.00;;;11.90;99.90;;;;;;4971447;28;20188;-76
2023/03/21 09:45:24;;;;;;;11.65;4.95;;;12.00;99.90;;;;;;4972641;28;20183;-76
2023/03/21 09:47:55;;;;;;;11.60;5.18;;;12.00;99.90;;;;;;4973259;28;20187;-76
2023/03/21 09:50:34;;;;;;;11.63;5.82;;;12.00;99.90;;;;;;4973689;28;20668;-76
2023/03/21 09:53:26;;;;;;;8.30;5.22;;;12.00;99.90;;;;;;4972654;28;20222;-76
2023/03/21 09:55:53;;;;;;;7.05;3.83;;;12.00;99.90;;;;;;4958394;28;20184;-76
2023/03/21 09:58:27;;;;;;;10.38;4.60;;;12.00;99.90;;;;;;4972966;28;20229;-77
2023/03/21 10:01:06;;;;;;;10.18;4.50;;;12.00;99.90;;;;;;4973599;28;20183;-77
2023/03/21 10:03:36;;;;;;;9.00;4.65;;;12.10;99.90;;;;;;4972057;28;20246;-76
2023/03/21 10:06:14;;;;;;;7.53;4.35;;;12.10;99.90;;;;;;4974008;28;20176;-76
2023/03/21 10:08:46;;;;;;;7.28;4.85;;;12.10;99.90;;;;;;5002340;28;20213;-76
2023/03/21 10:11:18;;;;;;;8.82;4.32;;;12.10;99.90;;;;;;4991513;28;20225;-76
2023/03/21 10:13:49;;;;;;;9.38;5.63;;;12.10;99.90;;;;;;4991665;28;20175;-76
2023/03/21 10:16:24;;;;;;;9.90;5.57;;;12.10;99.90;;;;;;4992422;28;20206;-76
2023/03/21 10:18:50;;;;;;;9.07;5.63;;;12.00;99.90;;;;;;4990860;28;20223;-76
2023/03/21 10:21:22;;;;;;;12.18;5.72;;;12.00;99.90;;;;;;4975053;28;20183;-76
2023/03/21 10:23:50;;;;;;;8.40;4.45;;;12.00;99.90;;;;;;4955729;28;20274;-77
2023/03/21 10:26:20;;;;;;;10.48;5.18;;;11.90;99.90;;;;;;4987444;28;20167;-77
2023/03/21 10:28:47;;;;;;;7.68;3.95;;;11.90;99.90;;;;;;4971023;28;20644;-77
2023/03/21 10:31:24;;;;;;;8.05;4.18;;;11.90;99.90;;;;;;4972247;28;20176;-77
2023/03/21 10:33:51;;;;;;;7.25;4.20;;;11.90;99.90;;;;;;4987690;28;20186;-76
2023/03/21 10:36:24;;;;;;;6.47;4.38;;;12.00;99.90;;;;;;4972261;28;20175;-76
2023/03/21 10:38:57;;;;;;;9.02;4.65;;;12.00;99.90;;;;;;4970968;28;20258;-76
2023/03/21 10:41:23;;;;;;;8.73;5.82;;;12.10;99.90;;;;;;4970907;28;20176;-76
2023/03/21 10:44:06;;;;;;;7.87;5.00;;;12.10;99.90;;;;;;4971100;28;20175;-76
2023/03/21 10:46:32;;;;;;;6.68;4.78;;;12.20;99.90;;;;;;4972431;28;20206;-76
2023/03/21 10:48:58;;;;;;;13.60;6.13;;;12.30;99.90;;;;;;4970482;28;20214;-76
2023/03/21 10:51:31;;;;;;;8.50;4.27;;;12.30;99.90;;;;;;4973093;28;20269;-77
2023/03/21 10:53:58;;;;;;;9.23;4.93;;;12.40;99.90;;;;;;4954168;28;20167;-76
2023/03/21 10:56:30;;;;;;;9.30;5.20;;;12.50;99.90;;;;;;4970989;28;20239;-76
2023/03/21 10:58:59;;;;;;;6.53;4.82;;;12.60;99.90;;;;;;4970161;28;20215;-76
2023/03/21 11:01:54;;;;;;;11.30;6.17;;;12.70;99.90;;;;;;4970933;28;20190;-77
2023/03/21 11:04:29;;;;;;;8.25;5.05;;;12.70;99.90;;;;;;4971955;28;20606;-77
2023/03/21 11:06:58;;;;;;;9.38;5.50;;;12.80;99.90;;;;;;4972789;28;20182;-76
2023/03/21 11:09:26;;;;;;;8.67;4.40;;;12.90;99.90;;;;;;4954227;28;20211;-76
2023/03/21 11:12:08;;;;;;;6.03;4.20;;;12.80;99.90;;;;;;4972091;28;21323;-76
2023/03/21 11:14:46;;;;;;;7.80;4.33;;;12.80;99.90;;;;;;4970727;28;20222;-76
2023/03/21 11:17:27;;;;;;;8.67;6.23;;;12.80;99.90;;;;;;4971937;28;20952;-76
2023/03/21 11:20:08;;;;;;;8.97;5.70;;;12.70;99.90;;;;;;4969843;28;20642;-76
2023/03/21 11:22:41;;;;;;;7.78;4.68;;;12.80;99.90;;;;;;4978640;28;20605;-76
2023/03/21 11:25:19;;;;;;;9.65;4.80;;;12.70;99.90;;;;;;4991466;28;20179;-76
2023/03/21 11:27:52;;;;;;;9.02;5.53;;;12.70;99.90;;;;;;4989902;28;20182;-76
2023/03/21 11:30:26;;;;;;;9.77;4.25;;;12.70;99.90;;;;;;4990870;28;20198;-76
2023/03/21 11:33:03;;;;;;;7.45;4.28;;;12.70;99.90;;;;;;4990869;28;20198;-76
2023/03/21 11:35:38;;;;;;;9.07;4.70;;;12.70;99.90;;;;;;4991286;28;20167;-76
2023/03/21 11:38:05;;;;;;;7.68;3.75;;;12.70;99.90;;;;;;4989352;28;20233;-75
2023/03/21 11:40:33;;;;;;;5.65;4.43;;;12.70;99.90;;;;;;4991148;28;20195;-76
2023/03/21 11:43:21;;;;;;;8.95;4.43;;;12.70;99.90;;;;;;4989216;28;20175;-76
2023/03/21 11:46:08;;;;;;;7.30;3.80;;;12.60;99.90;;;;;;4986785;28;20179;-76
2023/03/21 11:48:47;;;;;;;8.30;5.28;;;12.60;99.90;;;;;;4969497;28;20250;-76
2023/03/21 11:51:35;;;;;;;8.75;5.25;;;12.50;99.90;;;;;;4986830;28;20179;-76
2023/03/21 11:54:06;;;;;;;6.65;4.13;;;12.50;99.90;;;;;;4970194;28;20267;-76
2023/03/21 11:56:37;;;;;;;7.25;5.68;;;12.50;99.90;;;;;;4971926;28;20171;-75
2023/03/21 11:59:06;;;;;;;9.32;4.00;;;12.40;99.90;;;;;;4970273;28;20211;-75
2023/03/21 12:01:41;;;;;;;10.35;3.92;;;12.40;99.90;;;;;;4954436;28;20180;-75
2023/03/21 12:04:18;;;;;;;10.30;5.35;;;12.40;99.90;;;;;;4971735;28;20179;-76
2023/03/21 12:07:15;;;;;;;5.60;4.05;;;12.40;99.90;;;;;;4971093;28;20175;-75
2023/03/21 12:10:07;;;;;;;7.35;3.55;;;12.40;99.90;;;;;;4952128;28;20214;-76
2023/03/21 12:12:41;;;;;;;7.43;3.10;;;12.40;99.90;;;;;;4958617;28;20187;-76
2023/03/21 12:15:23;;;;;;;7.28;3.95;;;12.40;99.90;;;;;;4974218;28;20179;-75
2023/03/21 12:18:13;;;;;;;7.63;5.10;;;12.40;99.90;;;;;;4957265;28;20544;-75
2023/03/21 12:20:48;;;;;;;8.85;4.50;;;12.30;99.90;;;;;;4974107;28;20318;-75
2023/03/21 12:23:32;;;;;;;7.25;4.50;;;12.30;99.90;;;;;;4974769;28;20262;-75
2023/03/21 12:26:09;;;;;;;6.20;3.67;;;12.20;99.90;;;;;;4990107;28;20160;-75
2023/03/21 12:28:53;;;;;;;6.25;4.93;;;12.20;99.90;;;;;;4973104;28;20215;-75
2023/03/21 12:31:41;;;;;;;6.78;4.57;;;12.20;99.90;;;;;;4989744;28;20178;-75
2023/03/21 12:34:24;;;;;;;6.80;4.55;;;12.20;99.90;;;;;;4989260;28;20660;-76
2023/03/21 12:37:16;;;;;;;10.20;4.28;;;12.20;99.90;;;;;;4989457;28;20182;-76
2023/03/21 12:39:46;;;;;;;10.23;5.40;;;12.20;99.90;;;;;;4974286;28;20202;-75
2023/03/21 12:42:42;;;;;;;5.68;3.28;;;12.20;99.90;;;;;;4977179;28;20540;-75
2023/03/21 12:45:19;;;;;;;11.20;4.47;;;12.20;99.90;;;;;;4956820;28;20188;-76
2023/03/21 12:47:56;;;;;;;8.95;3.63;;;12.20;99.90;;;;;;4973483;28;20187;-76
2023/03/21 12:50:36;;;;;;;6.65;4.22;;;12.30;99.90;;;;;;4972795;28;20257;-76
2023/03/21 12:53:40;;;;;;;11.77;4.78;;;12.40;99.90;;;;;;4989443;28;20171;-75
2023/03/21 12:56:12;;;;;;;6.97;4.75;;;12.40;99.90;;;;;;4972575;28;20183;-75
2023/03/21 12:59:18;;;;;;;11.05;5.60;;;12.50;99.90;;;;;;4988882;28;20211;-76
2023/03/21 13:01:47;;;;;;;6.45;4.35;;;12.60;99.90;;;;;;4973115;28;20272;-75
2023/03/21 13:04:35;;;;;;;4.80;3.42;;;12.70;99.90;;;;;;4988920;28;20190;-75
2023/03/21 13:07:04;;;;;;;7.63;4.10;;;12.70;99.90;;;;;;4973308;28;20175;-75
2023/03/21 13:09:35;;;;;;;7.07;3.28;;;12.90;99.90;;;;;;4972277;28;20250;-75
2023/03/21 13:12:12;;;;;;;6.73;4.30;;;13.00;99.90;;;;;;4973164;28;20223;-75